createdAt,value
2022-11-26T00:01:50.555Z,100537.72
2022-11-26T00:04:31.320Z,100532.59
2022-11-26T00:07:14.395Z,100532.69
2022-11-26T00:10:05.708Z,100542.63
2022-11-26T00:12:46.438Z,100550.56
2022-11-26T00:15:37.041Z,100551.78
2022-11-26T00:18:23.289Z,100555.59
2022-11-26T00:21:09.630Z,100553.22
2022-11-26T00:23:57.278Z,100549.94
2022-11-26T00:26:43.406Z,100563.84
2022-11-26T00:29:24.660Z,100560.84
2022-11-26T00:32:05.043Z,100558.88
2022-11-26T00:34:49.409Z,100556.88
2022-11-26T00:37:54.376Z,100554.69
2022-11-26T00:40:33.183Z,100557.72
2022-11-26T00:43:17.369Z,100555.97
2022-11-26T00:49:04.492Z,100555.50
2022-11-26T00:51:54.415Z,100550.84
2022-11-26T00:54:38.034Z,100554.50
2022-11-26T00:57:19.615Z,100557.13
2022-11-26T01:00:00.418Z,100549.25
2022-11-26T01:02:46.601Z,100554.22
2022-11-26T01:05:32.524Z,100564.53
2022-11-26T01:08:30.746Z,100569.25
2022-11-26T01:11:20.299Z,100568.63
2022-11-26T01:13:59.274Z,100570.09
2022-11-26T01:16:43.805Z,100569.47
2022-11-26T01:19:30.501Z,100563.38
2022-11-26T01:22:27.354Z,100563.69
2022-11-26T01:25:21.289Z,100564.44
2022-11-26T01:28:04.455Z,100571.91
2022-11-26T01:30:54.049Z,100574.28
2022-11-26T01:33:41.737Z,100572.00
2022-11-26T01:36:33.843Z,100578.38
2022-11-26T01:39:23.775Z,100580.56
2022-11-26T01:42:54.539Z,100587.66
2022-11-26T01:45:50.413Z,100587.22
2022-11-26T01:48:40.185Z,100583.50
2022-11-26T01:51:40.688Z,100586.09
2022-11-26T01:54:30.725Z,100586.16
2022-11-26T01:57:32.247Z,100584.06
2022-11-26T02:00:19.962Z,100588.78
2022-11-26T02:03:06.249Z,100584.81
2022-11-26T02:05:55.475Z,100589.63
2022-11-26T02:08:45.674Z,100581.41
2022-11-26T02:11:34.312Z,100581.78
2022-11-26T02:14:37.635Z,100581.47
2022-11-26T02:17:43.451Z,100584.53
2022-11-26T02:20:54.975Z,100584.22
2022-11-26T02:24:31.519Z,100586.09
2022-11-26T02:27:59.096Z,100587.63
2022-11-26T02:30:43.281Z,100587.47
2022-11-26T02:33:36.249Z,100592.44
2022-11-26T02:36:28.012Z,100603.66
2022-11-26T02:39:27.497Z,100597.84
2022-11-26T02:42:20.097Z,100592.44
2022-11-26T02:45:03.608Z,100594.94
2022-11-26T02:47:49.704Z,100606.91
2022-11-26T02:50:38.999Z,100607.81
2022-11-26T02:53:21.369Z,100606.28
2022-11-26T02:56:07.593Z,100608.03
2022-11-26T02:58:57.942Z,100603.56
2022-11-26T03:01:47.804Z,100595.72
2022-11-26T03:04:42.532Z,100604.75
2022-11-26T03:07:28.979Z,100606.97
2022-11-26T03:10:08.208Z,100610.66
2022-11-26T03:13:00.033Z,100610.94
2022-11-26T03:15:40.668Z,100609.78
2022-11-26T03:18:21.670Z,100612.00
2022-11-26T03:21:02.939Z,100612.94
2022-11-26T03:23:38.666Z,100612.50
2022-11-26T03:26:33.298Z,100614.25
2022-11-26T03:29:17.383Z,100615.78
2022-11-26T03:32:08.579Z,100617.56
2022-11-26T03:34:49.596Z,100624.44
2022-11-26T03:37:39.565Z,100622.09
2022-11-26T03:40:25.396Z,100623.81
2022-11-26T03:43:15.884Z,100632.25
2022-11-26T03:46:10.708Z,100630.75
2022-11-26T03:49:02.434Z,100644.41
2022-11-26T03:51:45.833Z,100649.19
2022-11-26T03:54:26.552Z,100649.91
2022-11-26T03:57:16.212Z,100642.44
2022-11-26T04:00:07.463Z,100654.66
2022-11-26T04:02:53.365Z,100650.31
2022-11-26T04:05:40.431Z,100652.28
2022-11-26T04:08:24.872Z,100650.63
2022-11-26T04:11:25.372Z,100657.31
2022-11-26T04:14:14.637Z,100657.31
2022-11-26T04:16:58.221Z,100661.84
2022-11-26T04:19:53.053Z,100668.00
2022-11-26T04:22:36.406Z,100661.28
2022-11-26T04:25:13.984Z,100662.41
2022-11-26T04:27:57.686Z,100669.94
2022-11-26T04:30:46.872Z,100675.72
2022-11-26T04:33:41.020Z,100674.72
2022-11-26T04:36:27.544Z,100673.63
2022-11-26T04:39:19.921Z,100672.91
2022-11-26T04:42:09.382Z,100677.16
2022-11-26T04:45:02.172Z,100675.97
2022-11-26T04:47:51.266Z,100689.06
2022-11-26T04:50:35.285Z,100679.53
2022-11-26T04:53:24.806Z,100676.75
2022-11-26T04:56:15.979Z,100688.25
2022-11-26T04:59:04.410Z,100703.66
2022-11-26T05:01:57.397Z,100707.88
2022-11-26T05:04:45.592Z,100707.88
2022-11-26T05:07:27.391Z,100707.88
2022-11-26T05:10:11.313Z,100714.91
2022-11-26T05:13:00.371Z,100707.56
2022-11-26T05:15:41.557Z,100718.28
2022-11-26T05:18:30.769Z,100717.69
2022-11-26T05:21:18.966Z,100723.88
2022-11-26T05:23:56.813Z,100728.66
2022-11-26T05:26:45.722Z,100727.13
2022-11-26T05:29:31.852Z,100731.59
2022-11-26T05:32:15.828Z,100736.34
2022-11-26T05:35:00.340Z,100735.22
2022-11-26T05:37:46.351Z,100729.78
2022-11-26T05:40:33.337Z,100731.03
2022-11-26T05:43:22.894Z,100727.94
2022-11-26T05:46:22.484Z,100725.00
2022-11-26T05:49:05.628Z,100737.34
2022-11-26T05:51:55.354Z,100743.50
2022-11-26T05:54:44.691Z,100747.03
2022-11-26T05:57:32.049Z,100744.94
2022-11-26T06:00:22.469Z,100748.03
2022-11-26T06:03:04.440Z,100750.25
2022-11-26T06:05:51.409Z,100754.19
2022-11-26T06:08:29.798Z,100762.47
2022-11-26T06:11:22.108Z,100767.09
2022-11-26T06:14:11.224Z,100765.28
2022-11-26T06:17:00.505Z,100771.88
2022-11-26T06:19:44.224Z,100771.31
2022-11-26T06:22:38.973Z,100773.00
2022-11-26T06:25:23.758Z,100768.06
2022-11-26T06:28:17.981Z,100771.88
2022-11-26T06:31:01.529Z,100777.63
2022-11-26T06:33:41.572Z,100785.63
2022-11-26T06:36:20.502Z,100779.84
2022-11-26T06:39:07.760Z,100787.88
2022-11-26T06:41:54.625Z,100788.16
2022-11-26T06:44:43.352Z,100788.28
2022-11-26T06:47:39.343Z,100785.47
2022-11-26T06:50:27.418Z,100781.69
2022-11-26T06:53:10.121Z,100788.72
2022-11-26T06:56:04.341Z,100788.13
2022-11-26T06:58:45.395Z,100788.13
2022-11-26T07:01:27.161Z,100799.38
2022-11-26T07:04:05.069Z,100792.09
2022-11-26T07:06:51.188Z,100788.44
2022-11-26T07:09:38.373Z,100791.25
2022-11-26T07:12:29.123Z,100788.53
2022-11-26T07:15:09.810Z,100803.59
2022-11-26T07:17:48.318Z,100803.59
2022-11-26T07:20:28.020Z,100814.94
2022-11-26T07:23:39.319Z,100826.06
2022-11-26T07:26:23.430Z,100829.28
2022-11-26T07:29:11.606Z,100830.97
2022-11-26T07:31:58.385Z,100837.03
2022-11-26T07:34:44.410Z,100823.94
2022-11-26T07:37:33.390Z,100819.44
2022-11-26T07:40:19.453Z,100821.16
2022-11-26T07:43:10.855Z,100828.28
2022-11-26T07:45:54.882Z,100822.69
2022-11-26T07:48:44.121Z,100826.31
2022-11-26T07:51:55.840Z,100822.94
2022-11-26T07:54:44.993Z,100818.44
2022-11-26T07:57:39.218Z,100815.94
2022-11-26T08:00:30.634Z,100815.47
2022-11-26T08:03:15.398Z,100811.25
2022-11-26T08:06:10.866Z,100815.31
2022-11-26T08:09:00.051Z,100818.16
2022-11-26T08:11:52.322Z,100826.44
2022-11-26T08:14:33.858Z,100836.25
2022-11-26T08:17:12.351Z,100840.34
2022-11-26T08:19:56.368Z,100845.31
2022-11-26T08:22:40.191Z,100846.69
2022-11-26T08:25:30.935Z,100849.09
2022-11-26T08:28:17.455Z,100846.13
2022-11-26T08:31:13.951Z,100849.59
2022-11-26T08:34:01.339Z,100863.19
2022-11-26T08:36:39.925Z,100865.19
2022-11-26T08:39:28.420Z,100871.34
2022-11-26T08:42:12.013Z,100873.69
2022-11-26T08:44:52.318Z,100884.34
2022-11-26T08:47:38.993Z,100884.66
2022-11-26T08:50:22.317Z,100889.06
2022-11-26T08:53:06.399Z,100899.47
2022-11-26T08:56:00.072Z,100888.56
2022-11-26T08:58:52.363Z,100901.19
2022-11-26T09:01:39.100Z,100904.00
2022-11-26T09:04:18.564Z,100902.72
2022-11-26T09:07:02.129Z,100906.53
2022-11-26T09:09:43.132Z,100914.09
2022-11-26T09:12:32.514Z,100913.84
2022-11-26T09:15:15.399Z,100914.16
2022-11-26T09:18:12.291Z,100915.38
2022-11-26T09:21:07.453Z,100920.59
2022-11-26T09:23:51.273Z,100919.19
2022-11-26T09:26:39.411Z,100923.09
2022-11-26T09:29:30.349Z,100917.34
2022-11-26T09:32:23.613Z,100915.94
2022-11-26T09:35:18.338Z,100914.53
2022-11-26T09:38:04.264Z,100917.78
2022-11-26T09:41:18.368Z,100923.63
2022-11-26T09:44:19.636Z,100921.75
2022-11-26T09:47:44.713Z,100927.94
2022-11-26T09:50:43.946Z,100917.44
2022-11-26T09:53:48.956Z,100913.56
2022-11-26T09:56:33.206Z,100917.94
2022-11-26T09:59:15.693Z,100906.75
2022-11-26T10:01:59.156Z,100917.22
2022-11-26T10:04:41.177Z,100922.28
2022-11-26T10:08:09.667Z,100921.47
2022-11-26T10:11:12.773Z,100918.31
2022-11-26T10:14:42.266Z,100910.56
2022-11-26T10:17:40.565Z,100911.59
2022-11-26T10:20:21.962Z,100913.84
2022-11-26T10:23:34.803Z,100914.84
2022-11-26T10:26:23.381Z,100914.84
2022-11-26T10:29:29.285Z,100921.47
2022-11-26T10:32:36.230Z,100924.84
2022-11-26T10:35:30.340Z,100929.81
2022-11-26T10:38:13.891Z,100929.19
2022-11-26T10:40:55.132Z,100924.81
2022-11-26T10:43:39.416Z,100922.91
2022-11-26T10:46:40.913Z,100913.88
2022-11-26T10:49:43.154Z,100907.66
2022-11-26T10:52:43.820Z,100914.66
2022-11-26T10:55:37.339Z,100903.16
2022-11-26T10:58:20.345Z,100909.66
2022-11-26T11:01:20.844Z,100894.94
2022-11-26T11:04:24.981Z,100900.19
2022-11-26T11:07:11.680Z,100894.25
2022-11-26T11:09:52.920Z,100901.38
2022-11-26T11:12:38.446Z,100893.72
2022-11-26T11:15:29.779Z,100891.63
2022-11-26T11:18:28.661Z,100897.13
2022-11-26T11:21:13.311Z,100894.13
2022-11-26T11:24:09.581Z,100895.81
2022-11-26T11:27:01.698Z,100896.16
2022-11-26T11:29:51.856Z,100894.81
2022-11-26T11:32:43.692Z,100894.34
2022-11-26T11:35:33.435Z,100886.78
2022-11-26T11:38:11.677Z,100898.22
2022-11-26T11:40:55.933Z,100896.03
2022-11-26T11:43:44.329Z,100896.03
2022-11-26T11:46:42.030Z,100904.75
2022-11-26T11:49:47.945Z,100899.06
2022-11-26T11:52:39.648Z,100890.34
2022-11-26T11:55:23.898Z,100891.50
2022-11-26T11:58:26.988Z,100882.25
2022-11-26T12:01:21.714Z,100878.03
2022-11-26T12:04:21.206Z,100883.06
2022-11-26T12:07:18.098Z,100880.03
2022-11-26T12:10:33.906Z,100881.00
2022-11-26T12:13:10.459Z,100881.31
2022-11-26T12:16:07.213Z,100880.94
2022-11-26T12:19:05.868Z,100885.00
2022-11-26T12:21:59.364Z,100877.97
2022-11-26T12:25:40.256Z,100874.56
2022-11-26T12:28:22.923Z,100883.06
2022-11-26T12:31:21.974Z,100875.13
2022-11-26T12:34:09.026Z,100871.63
2022-11-26T12:37:12.294Z,100879.66
2022-11-26T12:40:28.473Z,100875.84
2022-11-26T12:43:40.892Z,100874.16
2022-11-26T12:47:25.323Z,100867.09
2022-11-26T12:50:48.405Z,100869.56
2022-11-26T12:54:04.654Z,100870.84
2022-11-26T12:57:08.696Z,100873.88
2022-11-26T13:00:22.330Z,100873.56
2022-11-26T13:03:11.613Z,100870.50
2022-11-26T13:05:51.223Z,100869.16
2022-11-26T13:08:35.013Z,100871.50
2022-11-26T13:11:45.244Z,100866.28
2022-11-26T13:14:40.641Z,100870.97
2022-11-26T13:17:32.227Z,100870.16
2022-11-26T13:20:41.641Z,100872.84
2022-11-26T13:23:41.458Z,100874.00
2022-11-26T13:27:06.646Z,100877.59
2022-11-26T13:29:59.859Z,100874.22
2022-11-26T13:33:30.813Z,100874.94
2022-11-26T13:36:44.018Z,100882.03
2022-11-26T13:39:40.815Z,100881.94
2022-11-26T13:42:35.427Z,100873.88
2022-11-26T13:46:07.339Z,100883.97
2022-11-26T13:49:05.866Z,100890.69
2022-11-26T13:52:14.942Z,100888.03
2022-11-26T13:55:33.743Z,100894.91
2022-11-26T13:58:39.479Z,100890.00
2022-11-26T14:01:29.469Z,100894.38
2022-11-26T14:04:16.986Z,100899.75
2022-11-26T14:07:15.442Z,100902.44
2022-11-26T14:10:03.794Z,100897.41
2022-11-26T14:13:10.109Z,100895.06
2022-11-26T14:16:09.192Z,100898.41
2022-11-26T14:19:07.254Z,100899.16
2022-11-26T14:22:05.416Z,100901.66
2022-11-26T14:25:20.233Z,100898.84
2022-11-26T14:27:58.293Z,100890.78
2022-11-26T14:30:45.654Z,100895.47
2022-11-26T14:33:33.297Z,100900.22
2022-11-26T14:36:27.639Z,100898.53
2022-11-26T14:39:15.085Z,100899.22
2022-11-26T14:42:02.242Z,100901.91
2022-11-26T14:45:03.297Z,100903.59
2022-11-26T14:48:03.769Z,100900.22
2022-11-26T14:51:11.277Z,100906.25
2022-11-26T14:53:58.333Z,100903.72
2022-11-26T14:56:46.365Z,100904.56
2022-11-26T14:59:30.676Z,100914.25
2022-11-26T15:02:29.536Z,100915.03
2022-11-26T15:05:27.040Z,100911.63
2022-11-26T15:08:27.006Z,100912.66
2022-11-26T15:11:26.103Z,100928.66
2022-11-26T15:14:10.178Z,100914.31
2022-11-26T15:16:57.332Z,100920.00
2022-11-26T15:19:43.462Z,100916.28
2022-11-26T15:22:33.822Z,100919.97
2022-11-26T15:25:26.047Z,100925.09
2022-11-26T15:28:45.934Z,100921.91
2022-11-26T15:31:31.943Z,100928.06
2022-11-26T15:34:19.261Z,100932.78
2022-11-26T15:37:12.653Z,100928.88
2022-11-26T15:39:53.851Z,100929.44
2022-11-26T15:42:39.833Z,100931.88
2022-11-26T15:45:38.335Z,100927.66
2022-11-26T15:48:50.830Z,100924.16
2022-11-26T15:52:02.370Z,100927.66
2022-11-26T15:55:15.103Z,100929.16
2022-11-26T15:58:04.452Z,100929.66
2022-11-26T16:00:57.173Z,100925.34
2022-11-26T16:03:50.992Z,100927.53
2022-11-26T16:07:18.899Z,100920.72
2022-11-26T16:10:35.651Z,100931.47
2022-11-26T16:13:39.544Z,100935.69
2022-11-26T16:16:21.577Z,100936.25
2022-11-26T16:19:21.150Z,100936.03
2022-11-26T16:22:07.385Z,100937.56
2022-11-26T16:25:22.891Z,100939.81
2022-11-26T16:28:20.474Z,100939.44
2022-11-26T16:31:09.405Z,100939.97
2022-11-26T16:33:55.384Z,100943.78
2022-11-26T16:36:45.006Z,100940.81
2022-11-26T16:39:30.056Z,100934.34
2022-11-26T16:42:18.085Z,100942.94
2022-11-26T16:45:04.420Z,100940.38
2022-11-26T16:47:51.474Z,100944.88
2022-11-26T16:50:32.738Z,100937.84
2022-11-26T16:53:12.542Z,100939.38
2022-11-26T16:55:53.332Z,100934.59
2022-11-26T16:58:39.106Z,100933.91
2022-11-26T17:01:25.977Z,100935.16
2022-11-26T17:04:12.292Z,100930.81
2022-11-26T17:07:01.724Z,100934.44
2022-11-26T17:09:44.376Z,100936.16
2022-11-26T17:12:33.928Z,100943.72
2022-11-26T17:15:16.014Z,100940.63
2022-11-26T17:18:00.391Z,100938.41
2022-11-26T17:20:55.168Z,100942.19
2022-11-26T17:23:41.306Z,100944.25
2022-11-26T17:26:43.394Z,100949.72
2022-11-26T17:29:20.654Z,100947.50
2022-11-26T17:32:10.872Z,100960.69
2022-11-26T17:34:58.326Z,100949.16
2022-11-26T17:37:52.109Z,100955.91
2022-11-26T17:40:33.609Z,100956.88
2022-11-26T17:43:20.800Z,100960.13
2022-11-26T17:46:06.889Z,100953.81
2022-11-26T17:48:51.419Z,100961.97
2022-11-26T17:51:42.671Z,100958.38
2022-11-26T17:54:24.011Z,100954.84
2022-11-26T17:57:04.193Z,100956.25
2022-11-26T17:59:47.445Z,100962.47
2022-11-26T18:02:28.760Z,100961.59
2022-11-26T18:05:26.096Z,100955.28
2022-11-26T18:08:11.805Z,100961.06
2022-11-26T18:11:07.528Z,100956.38
2022-11-26T18:13:45.207Z,100956.97
2022-11-26T18:16:34.803Z,100951.22
2022-11-26T18:19:16.880Z,100953.88
2022-11-26T18:22:09.736Z,100952.88
2022-11-26T18:27:57.285Z,100947.69
2022-11-26T18:30:47.794Z,100949.91
2022-11-26T18:33:25.694Z,100954.00
2022-11-26T18:36:16.309Z,100954.97
2022-11-26T18:39:03.309Z,100950.91
2022-11-26T18:41:45.344Z,100949.88
2022-11-26T18:44:38.254Z,100953.53
2022-11-26T18:47:18.093Z,100947.91
2022-11-26T18:50:06.458Z,100946.47
2022-11-26T18:52:46.281Z,100949.56
2022-11-26T18:55:32.685Z,100950.44
2022-11-26T18:58:11.125Z,100946.50
2022-11-26T19:00:52.019Z,100950.53
2022-11-26T19:03:31.327Z,100946.50
2022-11-26T19:06:13.615Z,100949.47
2022-11-26T19:09:00.702Z,100948.00
2022-11-26T19:11:41.815Z,100963.88
2022-11-26T19:14:23.004Z,100957.16
2022-11-26T19:17:07.302Z,100958.44
2022-11-26T19:19:56.674Z,100959.94
2022-11-26T19:22:47.883Z,100960.88
2022-11-26T19:25:34.669Z,100962.38
2022-11-26T19:28:15.277Z,100960.16
2022-11-26T19:31:14.725Z,100961.00
2022-11-26T19:33:59.348Z,100971.25
2022-11-26T19:36:43.362Z,100966.03
2022-11-26T19:39:26.710Z,100973.06
2022-11-26T19:42:02.469Z,100974.84
2022-11-26T19:44:48.162Z,100978.38
2022-11-26T19:47:39.593Z,100969.38
2022-11-26T19:50:20.675Z,100977.06
2022-11-26T19:53:07.034Z,100974.19
2022-11-26T19:55:47.677Z,100967.75
2022-11-26T19:58:26.145Z,100971.41
2022-11-26T20:01:16.099Z,100976.47
2022-11-26T20:04:07.535Z,100973.66
2022-11-26T20:06:59.438Z,100979.56
2022-11-26T20:09:42.286Z,100978.72
2022-11-26T20:12:28.318Z,100977.06
2022-11-26T20:15:12.289Z,100980.38
2022-11-26T20:17:58.085Z,100981.53
2022-11-26T20:20:47.840Z,100982.41
2022-11-26T20:23:49.127Z,100977.59
2022-11-26T20:26:37.202Z,100976.88
2022-11-26T20:29:25.233Z,100976.72
2022-11-26T20:32:06.193Z,100976.56
2022-11-26T20:34:51.222Z,100974.19
2022-11-26T20:37:39.637Z,100978.69
2022-11-26T20:40:33.271Z,100979.00
2022-11-26T20:43:19.113Z,100975.66
2022-11-26T20:46:09.488Z,100981.72
2022-11-26T20:48:53.353Z,100975.22
2022-11-26T20:51:51.806Z,100977.19
2022-11-26T20:54:37.649Z,100983.81
2022-11-26T20:57:24.287Z,100980.88
2022-11-26T21:00:17.318Z,100989.03
2022-11-26T21:02:55.218Z,100981.00
2022-11-26T21:05:53.304Z,100993.53
2022-11-26T21:08:39.174Z,100989.16
2022-11-26T21:11:22.939Z,100987.91
2022-11-26T21:14:14.639Z,100987.50
2022-11-26T21:16:57.416Z,100990.47
2022-11-26T21:19:40.962Z,100990.28
2022-11-26T21:22:27.650Z,100985.41
2022-11-26T21:25:16.151Z,100986.25
2022-11-26T21:28:05.923Z,100989.16
2022-11-26T21:30:49.898Z,100984.13
2022-11-26T21:33:22.630Z,100994.06
2022-11-26T21:36:28.458Z,100990.56
2022-11-26T21:39:14.754Z,100996.63
2022-11-26T21:41:58.997Z,100998.59
2022-11-26T21:44:50.875Z,100995.22
2022-11-26T21:47:45.551Z,101008.88
2022-11-26T21:50:21.285Z,101004.25
2022-11-26T21:53:02.013Z,100999.28
2022-11-26T21:55:48.611Z,100997.31
2022-11-26T21:58:26.340Z,101003.22
2022-11-26T22:01:15.086Z,101021.81
2022-11-26T22:03:59.530Z,101019.25
2022-11-26T22:06:50.472Z,101013.63
2022-11-26T22:09:34.100Z,101026.06
2022-11-26T22:12:17.737Z,101028.88
2022-11-26T22:15:01.589Z,101017.44
2022-11-26T22:17:47.550Z,101016.19
2022-11-26T22:20:42.931Z,101004.34
2022-11-26T22:23:41.244Z,101014.19
2022-11-26T22:26:28.247Z,101006.81
2022-11-26T22:29:12.229Z,101007.84
2022-11-26T22:31:55.918Z,101016.03
2022-11-26T22:34:41.943Z,101007.69
2022-11-26T22:37:23.289Z,101001.22
2022-11-26T22:40:15.857Z,101007.81
2022-11-26T22:42:48.038Z,101001.81
2022-11-26T22:45:31.875Z,101002.91
2022-11-26T22:48:24.013Z,101007.56
2022-11-26T22:51:05.311Z,101004.25
2022-11-26T22:53:51.795Z,101000.97
2022-11-26T22:56:38.198Z,101007.13
2022-11-26T22:59:24.949Z,101002.19
2022-11-26T23:02:08.542Z,101002.47
2022-11-26T23:04:49.242Z,101002.88
2022-11-26T23:07:39.606Z,100995.56
2022-11-26T23:10:20.784Z,100996.88
2022-11-26T23:12:58.462Z,101001.47
2022-11-26T23:15:45.665Z,100999.50
2022-11-26T23:18:33.471Z,100999.50
2022-11-26T23:21:48.590Z,100988.66
2022-11-26T23:24:32.073Z,100990.88
2022-11-26T23:27:16.478Z,100987.34
2022-11-26T23:30:00.515Z,100984.63
2022-11-26T23:32:44.160Z,100993.34
2022-11-26T23:35:28.402Z,100991.25
2022-11-26T23:38:10.289Z,100988.84
2022-11-26T23:41:07.158Z,100986.22
2022-11-26T23:43:55.723Z,100982.28
2022-11-26T23:46:38.321Z,100984.81
2022-11-26T23:49:23.275Z,100980.47
2022-11-26T23:52:04.042Z,100976.50
2022-11-26T23:54:51.318Z,100979.75
2022-11-26T23:57:40.323Z,100971.03
